createdAt,value
2023-05-16T00:00:25.192Z,13.10
2023-05-16T00:01:26.700Z,9
2023-05-16T00:02:24.365Z,10.5
2023-05-16T00:03:24.042Z,9.899
2023-05-16T00:04:24.705Z,10.80
2023-05-16T00:05:23.992Z,9.5
2023-05-16T00:06:24.241Z,11.5
2023-05-16T00:07:24.380Z,13.30
2023-05-16T00:08:23.973Z,7.699
2023-05-16T00:09:24.374Z,9.800
2023-05-16T00:10:25.086Z,11.5
2023-05-16T00:11:24.768Z,9.699
2023-05-16T00:12:23.945Z,10.80
2023-05-16T00:13:24.248Z,9.800
2023-05-16T00:14:24.417Z,8.300
2023-05-16T00:15:24.917Z,10.69
2023-05-16T00:17:28.289Z,10
2023-05-16T00:18:24.380Z,8.399
2023-05-16T00:19:24.510Z,10.60
2023-05-16T00:20:25.151Z,8.300
2023-05-16T00:21:24.230Z,10.30
2023-05-16T00:22:24.439Z,10.39
2023-05-16T00:23:24.572Z,8.600
2023-05-16T00:24:24.302Z,10.80
2023-05-16T00:25:24.705Z,10
2023-05-16T00:26:24.096Z,7.599
2023-05-16T00:27:24.237Z,12
2023-05-16T00:28:24.371Z,8.600
2023-05-16T00:29:24.535Z,9.300
2023-05-16T00:30:24.886Z,9
2023-05-16T00:31:24.224Z,7.099
2023-05-16T00:32:24.672Z,9
2023-05-16T00:33:24.101Z,8.899
2023-05-16T00:34:24.327Z,9.899
2023-05-16T00:35:24.355Z,7.900
2023-05-16T00:36:24.480Z,8.800
2023-05-16T00:37:23.912Z,9
2023-05-16T00:38:24.200Z,8
2023-05-16T00:39:24.226Z,9.800
2023-05-16T00:40:24.491Z,7.800
2023-05-16T00:41:24.408Z,7.199
2023-05-16T00:42:24.607Z,7.800
2023-05-16T00:43:24.553Z,6.699
2023-05-16T00:44:24.557Z,7
2023-05-16T00:45:24.416Z,7.199
2023-05-16T00:46:24.287Z,7.800
2023-05-16T00:47:24.122Z,7.900
2023-05-16T00:48:24.302Z,8
2023-05-16T00:49:24.342Z,7.099
2023-05-16T00:50:24.703Z,7.199
2023-05-16T00:51:24.027Z,7
2023-05-16T00:52:24.370Z,6.599
2023-05-16T00:53:24.346Z,7.099
2023-05-16T00:54:24.540Z,6.699
2023-05-16T00:55:24.502Z,7.300
2023-05-16T00:56:24.476Z,5.800
2023-05-16T00:57:24.053Z,6.900
2023-05-16T00:58:24.410Z,6.800
2023-05-16T00:59:24.670Z,7.300
2023-05-16T01:00:25.480Z,6.599
2023-05-16T01:01:24.768Z,7.900
2023-05-16T01:02:24.259Z,6.300
2023-05-16T01:03:25.105Z,7
2023-05-16T01:04:24.461Z,6.900
2023-05-16T01:05:24.166Z,6.699
2023-05-16T01:06:24.186Z,7
2023-05-16T01:07:24.503Z,6.800
2023-05-16T01:08:24.389Z,5.800
2023-05-16T01:09:24.772Z,6.400
2023-05-16T01:10:24.186Z,5.900
2023-05-16T01:11:24.217Z,6.5
2023-05-16T01:12:23.971Z,6.199
2023-05-16T01:13:24.858Z,5.699
2023-05-16T01:14:24.508Z,5.300
2023-05-16T01:15:24.210Z,6
2023-05-16T01:16:24.651Z,5.599
2023-05-16T01:17:24.246Z,6.199
2023-05-16T01:18:24.520Z,5.300
2023-05-16T01:19:23.978Z,6.699
2023-05-16T01:20:24.475Z,4.599
2023-05-16T01:21:24.705Z,4.800
2023-05-16T01:22:23.986Z,4.900
2023-05-16T01:23:24.261Z,6.099
2023-05-16T01:24:24.672Z,5.400
2023-05-16T01:25:29.064Z,4.800
2023-05-16T01:26:24.220Z,4.699
2023-05-16T01:27:24.696Z,5
2023-05-16T01:28:24.182Z,5.599
2023-05-16T01:29:24.551Z,4.099
2023-05-16T01:30:24.273Z,6.199
2023-05-16T01:31:24.774Z,5.099
2023-05-16T01:32:24.299Z,4.300
2023-05-16T01:33:24.575Z,4.800
2023-05-16T01:34:24.153Z,3.599
2023-05-16T01:35:24.866Z,4.699
2023-05-16T01:36:24.061Z,4.400
2023-05-16T01:37:29.732Z,3.599
2023-05-16T01:39:24.480Z,3.400
2023-05-16T01:40:24.131Z,3.099
2023-05-16T01:41:24.354Z,4.5
2023-05-16T01:42:24.312Z,4.099
2023-05-16T01:43:24.340Z,4.800
2023-05-16T01:44:24.735Z,3.400
2023-05-16T01:45:24.841Z,3
2023-05-16T01:46:24.154Z,4
2023-05-16T01:47:24.487Z,2.900
2023-05-16T01:48:24.625Z,2.700
2023-05-16T01:49:24.066Z,1.700
2023-05-16T01:50:24.281Z,2.799
2023-05-16T01:51:24.570Z,2.900
2023-05-16T01:52:24.042Z,2.700
2023-05-16T01:53:24.222Z,3.599
2023-05-16T01:54:24.304Z,2.400
2023-05-16T01:55:24.688Z,4
2023-05-16T01:56:24.595Z,4.099
2023-05-16T01:57:23.966Z,2.799
2023-05-16T01:58:24.165Z,2.900
2023-05-16T01:59:24.357Z,4.699
2023-05-16T02:00:25.325Z,3.599
2023-05-16T02:01:24.669Z,3.299
2023-05-16T02:02:24.662Z,2.400
2023-05-16T02:03:24.047Z,2.700
2023-05-16T02:04:24.471Z,4.599
2023-05-16T02:05:24.537Z,2.900
2023-05-16T02:06:24.436Z,3.5
2023-05-16T02:07:23.856Z,4.199
2023-05-16T02:08:24.174Z,3.900
2023-05-16T02:10:24.432Z,5.099
2023-05-16T02:11:24.568Z,4.599
2023-05-16T02:12:24.319Z,5.699
2023-05-16T02:13:24.705Z,4.099
2023-05-16T02:14:24.201Z,4.400
2023-05-16T02:15:24.796Z,4.5
2023-05-16T02:16:24.231Z,4.300
2023-05-16T02:17:25.566Z,3.299
2023-05-16T02:18:24.029Z,2.799
2023-05-16T02:19:24.216Z,4.900
2023-05-16T02:20:24.293Z,5.199
2023-05-16T02:21:24.569Z,4.5
2023-05-16T02:22:23.809Z,5
2023-05-16T02:23:24.073Z,4
2023-05-16T02:24:24.392Z,3.900
2023-05-16T02:25:24.568Z,3.200
2023-05-16T02:26:23.861Z,4.199
2023-05-16T02:28:24.633Z,4.099
2023-05-16T02:29:24.109Z,9.199
2023-05-16T02:30:24.420Z,4.300
2023-05-16T02:31:24.569Z,4
2023-05-16T02:32:24.184Z,5.5
2023-05-16T02:33:24.262Z,5.300
2023-05-16T02:34:24.786Z,4.300
2023-05-16T02:35:24.381Z,4.699
2023-05-16T02:36:24.073Z,4.199
2023-05-16T02:37:24.582Z,6.699
2023-05-16T02:38:24.464Z,5.400
2023-05-16T02:39:24.615Z,4.699
2023-05-16T02:40:24.482Z,5.699
2023-05-16T02:41:24.621Z,4.699
2023-05-16T02:42:24.030Z,6.599
2023-05-16T02:43:24.246Z,6
2023-05-16T02:44:24.359Z,5.400
2023-05-16T02:45:24.258Z,5.699
2023-05-16T02:46:24.020Z,5.400
2023-05-16T02:47:24.458Z,6
2023-05-16T02:48:24.353Z,5.099
2023-05-16T02:49:24.668Z,6.800
2023-05-16T02:50:24.067Z,6.400
2023-05-16T02:51:24.290Z,7.5
2023-05-16T02:52:24.453Z,8
2023-05-16T02:53:24.492Z,10.69
2023-05-16T02:54:24.662Z,9.600
2023-05-16T02:55:24.199Z,8.5
2023-05-16T02:56:24.074Z,7.199
2023-05-16T02:57:24.312Z,10.39
2023-05-16T02:58:24.714Z,10.30
2023-05-16T02:59:24.356Z,7.699
2023-05-16T03:00:25.396Z,10.19
2023-05-16T03:01:24.359Z,9.5
2023-05-16T03:02:24.626Z,9.899
2023-05-16T03:03:24.331Z,9.800
2023-05-16T03:04:24.318Z,10.60
2023-05-16T03:05:26.819Z,11.69
2023-05-16T03:06:24.596Z,9.699
2023-05-16T03:07:24.300Z,9.5
2023-05-16T03:08:24.881Z,8.899
2023-05-16T03:09:24.181Z,12.30
2023-05-16T03:10:24.815Z,11.69
2023-05-16T03:11:24.215Z,10.80
2023-05-16T03:12:24.364Z,8.800
2023-05-16T03:13:23.913Z,9.600
2023-05-16T03:14:24.099Z,9.899
2023-05-16T03:15:24.839Z,9
2023-05-16T03:16:24.500Z,10.60
2023-05-16T03:17:23.846Z,11.80
2023-05-16T03:18:24.204Z,8.699
2023-05-16T03:19:24.268Z,10.39
2023-05-16T03:20:24.530Z,11
2023-05-16T03:21:24.136Z,10.39
2023-05-16T03:22:24.457Z,11.39
2023-05-16T03:23:23.974Z,9.899
2023-05-16T03:24:24.262Z,11.19
2023-05-16T03:25:25.552Z,10.80
2023-05-16T03:26:24.205Z,12
2023-05-16T03:27:24.360Z,10.60
2023-05-16T03:28:24.751Z,11.80
2023-05-16T03:29:24.191Z,11.30
2023-05-16T03:30:24.501Z,12.5
2023-05-16T03:31:24.094Z,13.19
2023-05-16T03:32:24.594Z,10.60
2023-05-16T03:33:24.000Z,11.39
2023-05-16T03:35:24.536Z,11.80
2023-05-16T03:36:23.871Z,9.899
2023-05-16T03:37:23.973Z,12.89
2023-05-16T03:38:24.303Z,13.89
2023-05-16T03:39:24.491Z,12.60
2023-05-16T03:40:24.993Z,12.39
2023-05-16T03:41:24.338Z,14.30
2023-05-16T03:42:24.528Z,11.69
2023-05-16T03:43:24.150Z,14.80
2023-05-16T03:44:24.302Z,10.69
2023-05-16T03:45:25.095Z,10.89
2023-05-16T03:46:24.615Z,14.69
2023-05-16T03:47:24.270Z,11.89
2023-05-16T03:48:24.027Z,13.60
2023-05-16T03:49:24.103Z,10.80
2023-05-16T03:50:24.392Z,12.39
2023-05-16T03:51:24.193Z,13.30
2023-05-16T03:52:24.703Z,9.100
2023-05-16T03:53:24.518Z,16.39
2023-05-16T03:54:24.199Z,13.10
2023-05-16T03:55:24.483Z,11.60
2023-05-16T03:56:24.468Z,12.19
2023-05-16T03:57:24.078Z,10.60
2023-05-16T03:58:24.263Z,13.30
2023-05-16T03:59:24.263Z,13.89
2023-05-16T04:00:30.629Z,13.19
2023-05-16T04:01:24.023Z,10.39
2023-05-16T04:02:24.562Z,12.39
2023-05-16T04:03:24.420Z,12.89
2023-05-16T04:04:23.879Z,13.80
2023-05-16T04:05:24.334Z,10.89
2023-05-16T04:06:32.257Z,11.30
2023-05-16T04:07:24.303Z,10.89
2023-05-16T04:08:24.552Z,15.10
2023-05-16T04:09:24.497Z,14.89
2023-05-16T04:10:24.531Z,13.5
2023-05-16T04:11:24.149Z,10.69
2023-05-16T04:12:24.495Z,17.10
2023-05-16T04:13:24.630Z,14.10
2023-05-16T04:14:24.124Z,15.80
2023-05-16T04:15:24.814Z,13.30
2023-05-16T04:17:24.366Z,10.69
2023-05-16T04:18:24.276Z,11.80
2023-05-16T04:19:24.670Z,12.5
2023-05-16T04:21:24.814Z,12.19
2023-05-16T04:22:24.413Z,12.60
2023-05-16T04:23:24.004Z,14.5
2023-05-16T04:24:24.464Z,12.5
2023-05-16T04:25:25.325Z,13
2023-05-16T04:26:24.308Z,11.5
2023-05-16T04:27:24.166Z,12.5
2023-05-16T04:28:24.557Z,12.10
2023-05-16T04:29:24.122Z,13.30
2023-05-16T04:30:24.892Z,14.5
2023-05-16T04:31:23.945Z,14.60
2023-05-16T04:32:24.496Z,14.19
2023-05-16T04:33:24.078Z,14
2023-05-16T04:34:24.223Z,13.89
2023-05-16T04:35:24.500Z,11
2023-05-16T04:36:24.165Z,11.80
2023-05-16T04:37:24.497Z,12.89
2023-05-16T04:38:24.871Z,13
2023-05-16T04:39:24.425Z,10.19
2023-05-16T04:40:24.181Z,13.80
2023-05-16T04:41:24.501Z,14.80
2023-05-16T04:42:24.266Z,15.10
2023-05-16T04:43:24.597Z,13.5
2023-05-16T04:44:24.254Z,11.89
2023-05-16T04:45:24.985Z,16.20
2023-05-16T04:46:24.515Z,12.10
2023-05-16T04:47:24.217Z,15.30
2023-05-16T04:48:24.454Z,12.39
2023-05-16T04:49:24.705Z,13.89
2023-05-16T04:50:24.681Z,14.5
2023-05-16T04:51:24.233Z,11.89
2023-05-16T04:52:24.574Z,14.30
2023-05-16T04:53:24.025Z,15.10
2023-05-16T04:54:24.368Z,13.89
2023-05-16T04:56:24.405Z,11.80
2023-05-16T04:57:24.068Z,15.80
2023-05-16T04:58:24.439Z,10.80
2023-05-16T04:59:24.825Z,15.30
2023-05-16T05:01:30.359Z,13
2023-05-16T05:02:24.982Z,14.30
2023-05-16T05:03:24.523Z,16.20
2023-05-16T05:04:24.176Z,14.60
2023-05-16T05:05:24.857Z,14.80
2023-05-16T05:06:24.562Z,13.69
2023-05-16T05:07:24.277Z,13.5
2023-05-16T05:08:24.772Z,12.10
2023-05-16T05:09:24.494Z,14.89
2023-05-16T05:10:24.590Z,12.19
2023-05-16T05:11:24.442Z,15.60
2023-05-16T05:12:24.249Z,15.39
2023-05-16T05:13:24.717Z,17
2023-05-16T05:14:24.327Z,14
2023-05-16T05:15:25.300Z,14.69
2023-05-16T05:16:24.505Z,14.10
2023-05-16T05:17:24.971Z,13.19
2023-05-16T05:18:24.850Z,13.10
2023-05-16T05:19:24.475Z,16.89
2023-05-16T05:20:24.764Z,12.39
2023-05-16T05:21:24.222Z,13.19
2023-05-16T05:22:25.029Z,17.29
2023-05-16T05:23:24.833Z,14.5
2023-05-16T05:24:24.470Z,14
2023-05-16T05:25:24.640Z,14.69
2023-05-16T05:26:24.626Z,13.69
2023-05-16T05:27:24.465Z,13.30
2023-05-16T05:28:24.320Z,12.89
2023-05-16T05:29:24.676Z,11.80
2023-05-16T05:30:24.834Z,15.30
2023-05-16T05:31:24.780Z,12.39
2023-05-16T05:32:24.791Z,13.5
2023-05-16T05:33:24.661Z,10.69
2023-05-16T05:34:24.217Z,14.80
2023-05-16T05:35:24.800Z,13.19
2023-05-16T05:36:24.684Z,13.89
2023-05-16T05:37:24.517Z,14.60
2023-05-16T05:38:24.403Z,12.5
2023-05-16T05:39:24.325Z,13
2023-05-16T05:40:24.823Z,14.10
2023-05-16T05:41:24.179Z,12
2023-05-16T05:42:24.722Z,15.89
2023-05-16T05:43:24.168Z,10.39
2023-05-16T05:44:24.155Z,10.60
2023-05-16T05:45:25.456Z,11.30
2023-05-16T05:46:25.011Z,12.19
2023-05-16T05:47:24.743Z,13.10
2023-05-16T05:48:24.174Z,13.30
2023-05-16T05:49:24.810Z,15
2023-05-16T05:50:24.451Z,10.10
2023-05-16T05:51:24.138Z,11.60
2023-05-16T05:52:24.678Z,14.19
2023-05-16T05:53:24.816Z,12.80
2023-05-16T05:54:24.421Z,13.39
2023-05-16T05:56:24.621Z,11
2023-05-16T05:57:24.370Z,13.69
2023-05-16T05:58:24.636Z,12.19
2023-05-16T05:59:24.438Z,10.60
2023-05-16T06:00:25.118Z,11.39
2023-05-16T06:01:24.520Z,13.10
2023-05-16T06:02:24.536Z,14.10
2023-05-16T06:03:24.757Z,13.5
2023-05-16T06:04:24.492Z,14.19
2023-05-16T06:05:24.387Z,11.30
2023-05-16T06:06:24.482Z,10.89
2023-05-16T06:07:24.486Z,11.39
2023-05-16T06:08:24.272Z,10.5
2023-05-16T06:09:24.757Z,14.19
2023-05-16T06:10:24.520Z,10.69
2023-05-16T06:11:24.331Z,12.60
2023-05-16T06:12:24.326Z,15.60
2023-05-16T06:13:24.734Z,12.80
2023-05-16T06:14:24.633Z,15.30
2023-05-16T06:15:24.603Z,13.30
2023-05-16T06:16:24.509Z,10
2023-05-16T06:17:24.784Z,12.5
2023-05-16T06:18:24.280Z,11.80
2023-05-16T06:19:25.158Z,10.69
2023-05-16T06:20:24.745Z,9.800
2023-05-16T06:21:29.575Z,9
2023-05-16T06:22:24.278Z,11.69
2023-05-16T06:23:24.637Z,11.5
2023-05-16T06:24:24.307Z,12.80
2023-05-16T06:25:30.054Z,13.60
2023-05-16T06:26:24.950Z,10.80
2023-05-16T06:27:24.777Z,13.30
2023-05-16T06:28:24.593Z,10.39
2023-05-16T06:29:24.502Z,11.69
2023-05-16T06:30:24.568Z,10.19
2023-05-16T06:31:24.345Z,13.19
2023-05-16T06:32:24.496Z,11.89
2023-05-16T06:33:24.349Z,10.80
2023-05-16T06:34:24.758Z,12.19
2023-05-16T06:35:24.543Z,10.5
2023-05-16T06:36:24.472Z,11.60
2023-05-16T06:38:24.746Z,11.80
2023-05-16T06:39:24.355Z,9.699
2023-05-16T06:40:24.938Z,10.30
2023-05-16T06:41:24.720Z,9.300
2023-05-16T06:42:24.646Z,11.39
2023-05-16T06:44:24.216Z,13.80
2023-05-16T06:45:24.765Z,11.10
2023-05-16T06:46:24.396Z,12.5
2023-05-16T06:47:24.415Z,8.600
2023-05-16T06:48:24.380Z,12
2023-05-16T06:49:24.492Z,12.60
2023-05-16T06:50:24.261Z,11.10
2023-05-16T06:51:24.742Z,12.5
2023-05-16T06:52:24.460Z,10.10
2023-05-16T06:53:24.519Z,11.69
2023-05-16T06:54:24.467Z,10.39
2023-05-16T06:55:24.796Z,15.69
2023-05-16T06:56:24.905Z,9.300
2023-05-16T06:57:24.752Z,13.19
2023-05-16T06:58:24.704Z,9.399
2023-05-16T06:59:26.898Z,10.89
2023-05-16T07:00:25.566Z,10.69
2023-05-16T07:01:24.532Z,11.30
2023-05-16T07:02:24.499Z,11
2023-05-16T07:03:24.645Z,8.199
2023-05-16T07:04:24.449Z,9.699
2023-05-16T07:05:24.523Z,10
2023-05-16T07:06:24.301Z,11.89
2023-05-16T07:07:24.460Z,13.19
2023-05-16T07:08:24.864Z,11.5
2023-05-16T07:09:24.749Z,9.800
2023-05-16T07:10:24.765Z,14.60
2023-05-16T07:11:24.200Z,9
2023-05-16T07:12:24.899Z,11
2023-05-16T07:13:24.530Z,11.39
2023-05-16T07:14:24.685Z,8.5
2023-05-16T07:15:24.801Z,9.5
2023-05-16T07:16:24.378Z,10
2023-05-16T07:17:24.412Z,12.30
2023-05-16T07:18:24.474Z,12.60
2023-05-16T07:19:24.331Z,9.699
2023-05-16T07:20:24.436Z,11.89
2023-05-16T07:21:24.290Z,10
2023-05-16T07:22:24.168Z,10.69
2023-05-16T07:23:24.562Z,11
2023-05-16T07:24:24.516Z,12.5
2023-05-16T07:25:24.664Z,9.5
2023-05-16T07:26:24.343Z,11.39
2023-05-16T07:27:24.678Z,10.80
2023-05-16T07:28:24.624Z,12.30
2023-05-16T07:29:24.441Z,8
2023-05-16T07:30:25.249Z,8.300
2023-05-16T07:31:24.349Z,9.699
2023-05-16T07:32:24.372Z,11.89
2023-05-16T07:33:24.281Z,10.19
2023-05-16T07:34:24.917Z,8
2023-05-16T07:35:24.594Z,10.39
2023-05-16T07:36:24.359Z,9.300
2023-05-16T07:37:24.672Z,11.19
2023-05-16T07:38:24.325Z,12.39
2023-05-16T07:39:24.643Z,8.399
2023-05-16T07:40:24.543Z,11.39
2023-05-16T07:41:24.302Z,10.80
2023-05-16T07:42:24.668Z,12.80
2023-05-16T07:43:24.304Z,11.30
2023-05-16T07:44:25.066Z,9.300
2023-05-16T07:45:25.042Z,9.199
2023-05-16T07:46:24.742Z,8.699
2023-05-16T07:48:29.558Z,9.600
2023-05-16T07:49:24.424Z,10.80
2023-05-16T07:50:24.260Z,9.399
2023-05-16T07:51:24.977Z,12.5
2023-05-16T07:52:24.574Z,8.899
2023-05-16T07:53:24.372Z,9.600
2023-05-16T07:54:24.555Z,11
2023-05-16T07:55:24.286Z,10.89
2023-05-16T07:56:24.199Z,11.80
2023-05-16T07:57:25.290Z,8.899
2023-05-16T07:58:24.115Z,10.30
2023-05-16T07:59:24.817Z,7.400
2023-05-16T08:00:25.911Z,9.199
2023-05-16T08:01:24.830Z,10
2023-05-16T08:02:24.486Z,11.5
2023-05-16T08:03:24.828Z,9
2023-05-16T08:04:24.422Z,9.899
2023-05-16T08:05:24.104Z,8.100
2023-05-16T08:06:24.603Z,9.199
2023-05-16T08:07:24.242Z,9.800
2023-05-16T08:08:24.450Z,9.600
2023-05-16T08:09:24.151Z,8.600
2023-05-16T08:10:24.622Z,7.699
2023-05-16T08:11:24.387Z,8.399
2023-05-16T08:12:24.318Z,9
2023-05-16T08:13:24.253Z,7.400
2023-05-16T08:14:24.821Z,6.900
2023-05-16T08:15:25.401Z,9.100
2023-05-16T08:16:24.190Z,6.5
2023-05-16T08:17:24.221Z,8
2023-05-16T08:18:24.988Z,7.900
2023-05-16T08:19:25.096Z,9.699
2023-05-16T08:20:24.879Z,9.399
2023-05-16T08:21:24.442Z,7.199
2023-05-16T08:22:24.316Z,7.699
2023-05-16T08:23:24.394Z,8.199
2023-05-16T08:24:24.157Z,8.100
2023-05-16T08:25:24.900Z,9.800
2023-05-16T08:26:24.683Z,10.89
2023-05-16T08:27:24.349Z,8.800
2023-05-16T08:28:24.751Z,9.199
2023-05-16T08:29:24.604Z,8.300
2023-05-16T08:30:24.751Z,6.699
2023-05-16T08:31:24.344Z,9.800
2023-05-16T08:32:24.534Z,9.300
2023-05-16T08:33:24.518Z,9.699
2023-05-16T08:34:24.339Z,8.899
2023-05-16T08:35:25.153Z,7.699
2023-05-16T08:36:24.128Z,8.600
2023-05-16T08:37:24.951Z,7.699
2023-05-16T08:38:24.634Z,7.400
2023-05-16T08:39:24.682Z,10.69
2023-05-16T08:40:25.197Z,8.699
2023-05-16T08:41:24.423Z,8.5
2023-05-16T08:42:29.107Z,6.599
2023-05-16T08:43:24.918Z,8.600
2023-05-16T08:45:24.911Z,11.30
2023-05-16T08:46:25.079Z,8.600
2023-05-16T08:47:24.595Z,7.199
2023-05-16T08:48:24.769Z,7.099
2023-05-16T08:49:24.286Z,9.5
2023-05-16T08:50:24.574Z,8
2023-05-16T08:51:24.333Z,6.699
2023-05-16T08:52:24.092Z,7.699
2023-05-16T08:53:26.672Z,9.899
2023-05-16T08:54:26.207Z,9.600
2023-05-16T08:55:24.489Z,7.800
2023-05-16T08:56:24.690Z,7.5
2023-05-16T08:57:24.716Z,6.900
2023-05-16T08:58:24.563Z,9.199
2023-05-16T08:59:24.508Z,8
2023-05-16T09:00:25.478Z,7.900
2023-05-16T09:01:24.537Z,9.300
2023-05-16T09:02:24.666Z,8.399
2023-05-16T09:03:24.732Z,10.30
2023-05-16T09:04:24.779Z,7.800
2023-05-16T09:05:25.033Z,7.199
2023-05-16T09:06:38.635Z,8.5
2023-05-16T09:07:24.899Z,7.199
2023-05-16T09:08:38.630Z,6.900
2023-05-16T09:09:24.489Z,8.600
2023-05-16T09:10:38.678Z,8
2023-05-16T09:11:24.189Z,9.399
2023-05-16T09:12:24.772Z,7.900
2023-05-16T09:13:24.523Z,7.300
2023-05-16T09:14:24.703Z,7.599
2023-05-16T09:15:24.705Z,6.900
2023-05-16T09:16:24.625Z,6.699
2023-05-16T09:17:32.233Z,8.100
2023-05-16T09:18:24.778Z,8.399
2023-05-16T09:19:24.644Z,7.599
2023-05-16T09:20:24.739Z,9
2023-05-16T09:21:24.394Z,8
2023-05-16T09:22:24.856Z,7.599
2023-05-16T09:23:24.519Z,8.600
2023-05-16T09:24:24.613Z,7.400
2023-05-16T09:26:43.538Z,6.199
2023-05-16T09:27:25.216Z,7.699
2023-05-16T09:28:24.569Z,6.400
2023-05-16T09:29:24.517Z,6.599
2023-05-16T09:30:24.584Z,5.400
2023-05-16T09:31:24.628Z,7
2023-05-16T09:32:24.513Z,5.300
2023-05-16T09:33:24.489Z,6.5
2023-05-16T09:34:24.705Z,7.599
2023-05-16T09:35:39.763Z,8.600
2023-05-16T09:36:24.025Z,9.699
2023-05-16T09:37:24.209Z,6.699
2023-05-16T09:38:25.004Z,7
2023-05-16T09:39:24.944Z,5.800
2023-05-16T09:40:25.305Z,5.599
2023-05-16T09:41:24.578Z,6
2023-05-16T09:42:24.423Z,5.800
2023-05-16T09:43:24.343Z,6.300
2023-05-16T09:44:24.481Z,7
2023-05-16T09:45:24.915Z,5.900
2023-05-16T09:46:24.799Z,6.800
2023-05-16T09:47:24.846Z,6.5
2023-05-16T09:48:24.634Z,6.300
2023-05-16T09:49:24.542Z,7.199
2023-05-16T09:50:24.430Z,6.099
2023-05-16T09:51:24.574Z,7.599
2023-05-16T09:52:24.555Z,9.300
2023-05-16T09:53:24.643Z,7.800
2023-05-16T09:54:24.528Z,5.900
2023-05-16T09:55:24.723Z,6.5
2023-05-16T09:56:24.471Z,6.900
2023-05-16T09:57:24.439Z,6.099
2023-05-16T09:58:24.883Z,7.5
2023-05-16T09:59:24.964Z,6.300
2023-05-16T10:00:26.011Z,5.800
2023-05-16T10:01:24.145Z,7
2023-05-16T10:02:24.989Z,6.900
2023-05-16T10:03:24.757Z,6.199
2023-05-16T10:04:24.421Z,7
2023-05-16T10:05:24.647Z,6.5
2023-05-16T10:06:24.825Z,7
2023-05-16T10:07:24.874Z,6.099
2023-05-16T10:08:24.664Z,6.199
2023-05-16T10:09:24.574Z,7
2023-05-16T10:10:24.329Z,6.599
2023-05-16T10:11:24.935Z,4.900
2023-05-16T10:12:24.756Z,5.400
2023-05-16T10:13:24.496Z,5.599
2023-05-16T10:14:24.324Z,5.099
2023-05-16T10:15:25.332Z,4.400
2023-05-16T10:16:24.579Z,5.400
2023-05-16T10:17:24.424Z,6.5
2023-05-16T10:18:24.679Z,6.300
2023-05-16T10:19:25.297Z,6.599
2023-05-16T10:20:24.751Z,5.900
2023-05-16T10:21:24.540Z,6.900
2023-05-16T10:22:24.958Z,6.400
2023-05-16T10:23:24.625Z,5.300
2023-05-16T10:24:24.303Z,5.900
2023-05-16T10:25:24.442Z,6
2023-05-16T10:27:25.024Z,7.400
2023-05-16T10:28:24.941Z,5.199
2023-05-16T10:29:24.754Z,9.300
2023-05-16T10:30:24.829Z,4.900
2023-05-16T10:31:24.591Z,8.100
2023-05-16T10:32:24.829Z,6.599
2023-05-16T10:33:24.493Z,6.800
2023-05-16T10:34:24.267Z,5.900
2023-05-16T10:35:25.226Z,6
2023-05-16T10:36:25.031Z,6.099
2023-05-16T10:37:25.110Z,6.699
2023-05-16T10:38:25.303Z,5.699
2023-05-16T10:39:24.704Z,8
2023-05-16T10:40:24.904Z,7.5
2023-05-16T10:41:24.608Z,6.900
2023-05-16T10:42:24.511Z,5.900
2023-05-16T10:43:24.607Z,6.300
2023-05-16T10:44:25.094Z,5.699
2023-05-16T10:45:25.336Z,6.5
2023-05-16T10:46:24.432Z,7.300
2023-05-16T10:47:24.800Z,7
2023-05-16T10:48:24.781Z,6.400
2023-05-16T10:49:25.097Z,7.599
2023-05-16T10:50:25.089Z,6
2023-05-16T10:52:25.087Z,5.900
2023-05-16T10:53:24.412Z,6.800
2023-05-16T10:54:24.436Z,8.199
2023-05-16T10:55:24.587Z,8.699
2023-05-16T10:56:24.664Z,7
2023-05-16T10:57:24.693Z,6.300
2023-05-16T10:58:24.688Z,7.800
2023-05-16T10:59:24.780Z,5.400
2023-05-16T11:00:26.075Z,6.199
2023-05-16T11:01:24.819Z,8.199
2023-05-16T11:02:25.067Z,6.400
2023-05-16T11:03:24.865Z,5.699
2023-05-16T11:04:25.036Z,7.5
2023-05-16T11:05:25.135Z,6.800
2023-05-16T11:06:25.262Z,5.400
2023-05-16T11:07:24.742Z,7.5
2023-05-16T11:08:24.605Z,6.300
2023-05-16T11:09:24.571Z,6
2023-05-16T11:11:24.706Z,5.099
2023-05-16T11:12:24.816Z,5.800
2023-05-16T11:13:24.851Z,8.100
2023-05-16T11:14:25.126Z,5.099
2023-05-16T11:15:25.283Z,6.099
2023-05-16T11:16:24.591Z,8.100
2023-05-16T11:17:25.110Z,6.199
2023-05-16T11:18:24.715Z,5.900
2023-05-16T11:19:29.744Z,7.099
2023-05-16T11:20:24.842Z,7.800
2023-05-16T11:21:32.925Z,7.199
2023-05-16T11:22:24.828Z,6.800
2023-05-16T11:23:32.900Z,7.400
2023-05-16T11:24:24.690Z,6.400
2023-05-16T11:25:24.744Z,6.900
2023-05-16T11:26:24.880Z,9.800
2023-05-16T11:27:33.211Z,5.199
2023-05-16T11:28:25.030Z,7.400
2023-05-16T11:29:24.723Z,6.900
2023-05-16T11:30:24.827Z,6.800
2023-05-16T11:31:24.821Z,7
2023-05-16T11:32:24.828Z,6.099
2023-05-16T11:33:24.812Z,6.300
2023-05-16T11:34:24.888Z,6.099
2023-05-16T11:35:25.158Z,5.199
2023-05-16T11:36:25.027Z,5.900
2023-05-16T11:37:25.003Z,5.400
2023-05-16T11:38:24.978Z,5.900
2023-05-16T11:39:24.633Z,4.800
2023-05-16T11:40:24.571Z,6
2023-05-16T11:41:24.482Z,4.599
2023-05-16T11:42:24.678Z,6.900
2023-05-16T11:43:24.837Z,4.800
2023-05-16T11:44:24.827Z,4.400
2023-05-16T11:45:25.263Z,4.800
2023-05-16T11:46:24.585Z,5.699
2023-05-16T11:47:24.895Z,5.400
2023-05-16T11:48:35.747Z,6.699
2023-05-16T11:49:24.736Z,6.5
2023-05-16T11:50:24.919Z,5.300
2023-05-16T11:51:43.829Z,6.599
2023-05-16T11:52:24.439Z,5.599
2023-05-16T11:53:24.494Z,7.099
2023-05-16T11:54:24.494Z,7
2023-05-16T11:55:40.296Z,6.599
2023-05-16T11:56:24.615Z,6
2023-05-16T11:57:24.729Z,5.599
2023-05-16T11:58:24.669Z,5
2023-05-16T11:59:24.488Z,5.900
2023-05-16T12:01:24.991Z,5.400
2023-05-16T12:02:25.161Z,4.199
2023-05-16T12:03:24.750Z,5.300
2023-05-16T12:04:25.402Z,5.099
2023-05-16T12:05:25.109Z,5.800
2023-05-16T12:06:24.504Z,6.599
2023-05-16T12:07:24.444Z,5.400
2023-05-16T12:08:24.428Z,4.599
2023-05-16T12:09:24.643Z,6
2023-05-16T12:10:25.241Z,6.599
2023-05-16T12:11:24.539Z,7.900
2023-05-16T12:12:24.437Z,4.900
2023-05-16T12:13:24.601Z,5.199
2023-05-16T12:14:24.442Z,6.099
2023-05-16T12:15:24.898Z,5.699
2023-05-16T12:17:25.395Z,6.699
2023-05-16T12:18:24.310Z,5.599
2023-05-16T12:19:24.675Z,4.900
2023-05-16T12:20:24.613Z,5.900
2023-05-16T12:21:24.523Z,5.5
2023-05-16T12:22:24.380Z,5
2023-05-16T12:23:24.261Z,4.900
2023-05-16T12:24:25.105Z,4.800
2023-05-16T12:25:24.614Z,3.799
2023-05-16T12:26:24.460Z,5.599
2023-05-16T12:27:24.364Z,5.5
2023-05-16T12:28:24.426Z,5.400
2023-05-16T12:29:24.897Z,5.300
2023-05-16T12:31:31.547Z,5.800
2023-05-16T12:32:24.547Z,5.400
2023-05-16T12:33:24.913Z,6.599
2023-05-16T12:34:24.676Z,4
2023-05-16T12:35:24.696Z,4.5
2023-05-16T12:36:24.476Z,3.900
2023-05-16T12:37:24.454Z,5.699
2023-05-16T12:38:25.024Z,6.099
2023-05-16T12:39:25.043Z,5.199
2023-05-16T12:40:25.095Z,4.900
2023-05-16T12:41:24.914Z,5.099
2023-05-16T12:42:25.030Z,5.800
2023-05-16T12:43:24.365Z,5.5
2023-05-16T12:44:24.441Z,4
2023-05-16T12:45:24.432Z,5.900
2023-05-16T12:46:25.091Z,6.300
2023-05-16T12:47:24.667Z,4.599
2023-05-16T12:48:24.577Z,4.800
2023-05-16T12:49:24.848Z,4.300
2023-05-16T12:50:25.030Z,5.5
2023-05-16T12:51:24.893Z,5.400
2023-05-16T12:52:24.420Z,3.799
2023-05-16T12:53:25.017Z,4.900
2023-05-16T12:54:24.643Z,7.800
2023-05-16T12:55:24.716Z,5.099
2023-05-16T12:56:24.512Z,6.199
2023-05-16T12:57:24.632Z,4.599
2023-05-16T12:58:24.559Z,5.800
2023-05-16T12:59:24.723Z,5.099
2023-05-16T13:00:25.733Z,7.599
2023-05-16T13:01:24.706Z,3.700
2023-05-16T13:02:24.709Z,5
2023-05-16T13:03:24.829Z,4.900
2023-05-16T13:04:24.903Z,6.400
2023-05-16T13:06:39.844Z,5.300
2023-05-16T13:07:28.026Z,7.699
2023-05-16T13:08:24.867Z,6.5
2023-05-16T13:09:24.671Z,5
2023-05-16T13:10:24.750Z,6.400
2023-05-16T13:11:24.329Z,5.800
2023-05-16T13:12:24.763Z,6.599
2023-05-16T13:13:35.482Z,4.900
2023-05-16T13:14:24.583Z,6.699
2023-05-16T13:15:24.820Z,8.100
2023-05-16T13:16:24.473Z,5.400
2023-05-16T13:17:24.644Z,7.300
2023-05-16T13:18:24.481Z,5.900
2023-05-16T13:19:24.721Z,4.599
2023-05-16T13:20:24.813Z,8
2023-05-16T13:21:24.610Z,6.199
2023-05-16T13:22:24.542Z,5.199
2023-05-16T13:23:24.558Z,8
2023-05-16T13:24:24.494Z,5.699
2023-05-16T13:25:24.265Z,6.699
2023-05-16T13:26:24.719Z,5.699
2023-05-16T13:27:24.296Z,3.700
2023-05-16T13:28:24.736Z,5.699